createdAt,value
2018-07-12T00:02:15.078Z,1.90
2018-07-12T00:04:42.298Z,2.03
2018-07-12T00:07:09.480Z,2.30
2018-07-12T00:09:36.700Z,2.13
2018-07-12T00:12:03.935Z,2.10
2018-07-12T00:14:31.161Z,2.00
2018-07-12T00:16:58.385Z,1.80
2018-07-12T00:19:25.592Z,2.20
2018-07-12T00:21:52.828Z,1.97
2018-07-12T00:24:20.083Z,2.27
2018-07-12T00:26:47.427Z,2.07
2018-07-12T00:29:14.627Z,2.13
2018-07-12T00:31:41.856Z,2.77
2018-07-12T00:34:09.072Z,2.20
2018-07-12T00:36:36.316Z,2.00
2018-07-12T00:39:04.374Z,1.73
2018-07-12T00:41:31.640Z,1.90
2018-07-12T00:43:58.848Z,2.30
2018-07-12T00:46:26.064Z,2.20
2018-07-12T00:48:53.288Z,2.10
2018-07-12T00:51:20.550Z,2.20
2018-07-12T00:53:47.731Z,2.00
2018-07-12T00:56:14.944Z,2.00
2018-07-12T00:58:42.172Z,2.13
2018-07-12T01:01:09.411Z,2.07
2018-07-12T01:03:36.640Z,1.80
2018-07-12T01:06:03.847Z,2.37
2018-07-12T01:08:31.065Z,1.90
2018-07-12T01:13:31.948Z,2.30
2018-07-12T01:15:59.145Z,2.33
2018-07-12T01:18:26.378Z,2.60
2018-07-12T01:20:53.552Z,2.33
2018-07-12T01:23:20.755Z,2.50
2018-07-12T01:25:47.962Z,2.30
2018-07-12T01:28:15.161Z,2.20
2018-07-12T01:30:42.337Z,2.47
2018-07-12T01:33:09.610Z,2.23
2018-07-12T01:35:36.868Z,2.23
2018-07-12T01:38:04.081Z,2.07
2018-07-12T01:40:31.308Z,2.33
2018-07-12T01:42:58.508Z,2.37
2018-07-12T01:45:26.490Z,2.40
2018-07-12T01:47:53.732Z,2.30
2018-07-12T01:50:20.919Z,2.20
2018-07-12T01:52:48.137Z,2.47
2018-07-12T01:55:15.347Z,2.30
2018-07-12T01:57:42.567Z,2.30
2018-07-12T02:00:09.760Z,2.30
2018-07-12T02:02:36.984Z,2.40
2018-07-12T02:05:04.260Z,2.23
2018-07-12T02:07:31.474Z,1.93
2018-07-12T02:09:58.755Z,2.37
2018-07-12T02:12:25.948Z,2.43
2018-07-12T02:14:53.160Z,2.60
2018-07-12T02:17:20.365Z,2.67
2018-07-12T02:19:47.576Z,2.63
2018-07-12T02:22:21.265Z,2.63
2018-07-12T02:24:48.518Z,2.53
2018-07-12T02:27:16.612Z,2.63
2018-07-12T02:29:43.829Z,2.80
2018-07-12T02:32:11.115Z,2.53
2018-07-12T02:34:38.360Z,2.53
2018-07-12T02:37:05.592Z,2.33
2018-07-12T02:39:32.807Z,2.60
2018-07-12T02:42:00.015Z,2.63
2018-07-12T02:44:27.370Z,3.20
2018-07-12T02:46:54.547Z,2.70
2018-07-12T02:49:21.765Z,2.50
2018-07-12T02:51:49.022Z,2.60
2018-07-12T02:54:16.248Z,2.70
2018-07-12T02:56:43.437Z,2.97
2018-07-12T02:59:10.641Z,2.70
2018-07-12T03:01:37.854Z,2.70
2018-07-12T03:04:05.084Z,2.47
2018-07-12T03:06:32.276Z,2.87
2018-07-12T03:08:59.585Z,2.80
2018-07-12T03:11:26.804Z,2.57
2018-07-12T03:13:53.997Z,2.40
2018-07-12T03:16:21.252Z,3.00
2018-07-12T03:18:48.473Z,2.80
2018-07-12T03:21:15.676Z,2.60
2018-07-12T03:23:42.947Z,3.07
2018-07-12T03:26:10.167Z,2.90
2018-07-12T03:28:37.369Z,2.67
2018-07-12T03:31:04.667Z,2.63
2018-07-12T03:33:31.933Z,2.63
2018-07-12T03:35:59.156Z,2.70
2018-07-12T03:38:26.468Z,2.90
2018-07-12T03:40:53.961Z,3.00
2018-07-12T03:43:21.164Z,2.80
2018-07-12T03:45:48.352Z,3.23
2018-07-12T03:48:15.576Z,3.20
2018-07-12T03:50:42.792Z,3.27
2018-07-12T03:53:10.016Z,2.93
2018-07-12T03:55:37.238Z,3.23
2018-07-12T03:58:04.617Z,2.87
2018-07-12T04:00:31.749Z,3.03
2018-07-12T04:02:58.984Z,3.10
2018-07-12T04:05:26.188Z,3.07
2018-07-12T04:07:53.563Z,2.93
2018-07-12T04:10:20.741Z,3.27
2018-07-12T04:12:47.940Z,3.17
2018-07-12T04:15:15.140Z,2.90
2018-07-12T04:17:42.413Z,2.60
2018-07-12T04:20:09.657Z,3.27
2018-07-12T04:22:37.192Z,2.77
2018-07-12T04:25:04.404Z,2.83
2018-07-12T04:27:31.616Z,3.03
2018-07-12T04:29:59.703Z,3.10
2018-07-12T04:32:27.017Z,3.47
2018-07-12T04:34:54.391Z,3.47
2018-07-12T04:37:21.752Z,3.03
2018-07-12T04:39:48.951Z,3.17
2018-07-12T04:42:16.161Z,3.20
2018-07-12T04:44:43.361Z,3.40
2018-07-12T04:47:10.631Z,3.30
2018-07-12T04:49:37.844Z,3.20
2018-07-12T04:52:05.025Z,3.00
2018-07-12T04:54:32.242Z,2.80
2018-07-12T04:56:59.468Z,2.93
2018-07-12T04:59:26.694Z,2.97
2018-07-12T05:01:53.897Z,3.67
2018-07-12T05:04:21.087Z,3.50
2018-07-12T05:06:48.320Z,2.50
2018-07-12T05:09:15.520Z,3.40
2018-07-12T05:11:42.763Z,3.10
2018-07-12T05:14:10.040Z,3.27
2018-07-12T05:16:37.264Z,3.30
2018-07-12T05:19:04.472Z,3.07
2018-07-12T05:21:31.681Z,3.43
2018-07-12T05:23:58.880Z,2.97
2018-07-12T05:26:26.064Z,3.47
2018-07-12T05:28:53.307Z,3.33
2018-07-12T05:31:20.489Z,3.70
2018-07-12T05:33:47.692Z,4.17
2018-07-12T05:36:36.889Z,4.30
2018-07-12T05:39:05.288Z,4.03
2018-07-12T05:41:33.485Z,4.90
2018-07-12T05:44:01.703Z,4.20
2018-07-12T05:46:29.947Z,4.13
2018-07-12T05:48:58.262Z,4.07
2018-07-12T05:51:26.525Z,4.33
2018-07-12T05:53:54.768Z,4.07
2018-07-12T05:56:23.128Z,4.20
2018-07-12T05:58:51.764Z,4.00
2018-07-12T06:01:31.488Z,4.63
2018-07-12T06:03:59.722Z,4.37
2018-07-12T06:06:27.960Z,4.40
2018-07-12T06:08:56.224Z,3.80
2018-07-12T06:11:24.417Z,4.13
2018-07-12T06:13:52.644Z,3.90
2018-07-12T06:16:20.947Z,4.80
2018-07-12T06:18:49.187Z,3.90
2018-07-12T06:21:17.439Z,4.10
2018-07-12T06:23:45.626Z,4.00
2018-07-12T06:26:14.000Z,4.57
2018-07-12T06:28:42.211Z,3.97
2018-07-12T06:31:10.442Z,5.57
2018-07-12T06:33:38.744Z,5.07
2018-07-12T06:36:06.959Z,5.43
2018-07-12T06:38:35.224Z,6.07
2018-07-12T06:41:03.480Z,5.60
2018-07-12T06:43:31.819Z,7.30
2018-07-12T06:46:00.051Z,7.27
2018-07-12T06:48:28.316Z,7.00
2018-07-12T06:50:56.548Z,6.73
2018-07-12T06:53:24.900Z,7.20
2018-07-12T06:55:53.727Z,6.73
2018-07-12T06:58:21.936Z,7.27
2018-07-12T07:00:50.167Z,6.77
2018-07-12T07:03:18.384Z,7.80
2018-07-12T07:05:47.343Z,8.07
2018-07-12T07:08:15.973Z,8.83
2018-07-12T07:10:44.228Z,8.20
2018-07-12T07:13:12.467Z,7.80
2018-07-12T07:15:40.744Z,8.63
2018-07-12T07:18:08.952Z,8.07
2018-07-12T07:20:37.194Z,8.87
2018-07-12T07:23:05.409Z,9.20
2018-07-12T07:25:33.668Z,8.60
2018-07-12T07:28:01.869Z,8.57
2018-07-12T07:30:30.104Z,9.10
2018-07-12T07:32:58.340Z,9.20
2018-07-12T07:35:26.605Z,8.80
2018-07-12T07:37:54.827Z,8.10
2018-07-12T07:40:23.046Z,8.17
2018-07-12T07:42:51.369Z,8.10
2018-07-12T07:45:19.609Z,7.13
2018-07-12T07:47:47.837Z,7.03
2018-07-12T07:50:16.052Z,7.53
2018-07-12T07:52:44.280Z,7.07
2018-07-12T07:55:12.520Z,7.20
2018-07-12T07:57:40.728Z,7.10
2018-07-12T08:00:09.060Z,8.10
2018-07-12T08:02:37.280Z,7.83
2018-07-12T08:05:05.549Z,8.43
2018-07-12T08:07:33.794Z,8.07
2018-07-12T08:10:02.068Z,8.53
2018-07-12T08:12:30.276Z,10.03
2018-07-12T08:14:58.512Z,11.30
2018-07-12T08:17:26.745Z,11.00
2018-07-12T08:19:54.958Z,10.63
2018-07-12T08:22:23.199Z,11.53
2018-07-12T08:24:51.529Z,11.50
2018-07-12T08:27:19.772Z,11.00
2018-07-12T08:29:48.027Z,10.60
2018-07-12T08:32:16.247Z,9.27
2018-07-12T08:34:44.491Z,9.00
2018-07-12T08:37:12.695Z,8.23
2018-07-12T08:39:40.930Z,9.10
2018-07-12T08:42:09.188Z,8.73
2018-07-12T08:44:37.416Z,9.00
2018-07-12T08:47:05.621Z,9.10
2018-07-12T08:49:33.848Z,8.67
2018-07-12T08:52:02.063Z,7.53
2018-07-12T08:54:30.345Z,7.57
2018-07-12T08:56:58.557Z,7.70
2018-07-12T08:59:26.792Z,6.83
2018-07-12T09:01:55.450Z,7.37
2018-07-12T09:04:23.860Z,6.60
2018-07-12T09:06:52.173Z,6.40
2018-07-12T09:09:20.395Z,6.23
2018-07-12T09:11:48.600Z,6.30
2018-07-12T09:14:16.836Z,5.87
2018-07-12T09:16:45.092Z,5.83
2018-07-12T09:19:13.349Z,6.30
2018-07-12T09:21:41.580Z,6.17
2018-07-12T09:24:09.937Z,5.03
2018-07-12T09:26:38.220Z,5.47
2018-07-12T09:29:06.477Z,5.53
2018-07-12T09:31:34.674Z,6.53
2018-07-12T09:34:02.962Z,5.50
2018-07-12T09:36:31.176Z,5.03
2018-07-12T09:38:59.366Z,4.13
2018-07-12T09:41:27.603Z,4.47
2018-07-12T09:43:55.804Z,3.43
2018-07-12T09:46:23.802Z,3.30
2018-07-12T09:48:52.719Z,3.53
2018-07-12T09:51:20.956Z,3.30
2018-07-12T09:53:49.196Z,4.10
2018-07-12T09:56:17.550Z,3.97
2018-07-12T09:58:45.703Z,4.20
2018-07-12T10:01:19.388Z,3.83
2018-07-12T10:03:50.342Z,3.60
2018-07-12T10:06:24.022Z,3.93
2018-07-12T10:08:59.845Z,3.87
2018-07-12T10:11:33.617Z,3.80
2018-07-12T10:14:07.420Z,3.80
2018-07-12T10:16:41.036Z,4.40
2018-07-12T10:19:09.254Z,4.47
2018-07-12T10:21:37.461Z,3.63
2018-07-12T10:24:05.829Z,4.77
2018-07-12T10:26:34.082Z,4.20
2018-07-12T10:29:02.312Z,4.60
2018-07-12T10:31:30.529Z,3.80
2018-07-12T10:33:58.761Z,3.60
2018-07-12T10:36:27.016Z,4.43
2018-07-12T10:38:55.212Z,3.90
2018-07-12T10:41:23.568Z,3.90
2018-07-12T10:43:51.796Z,4.10
2018-07-12T10:46:20.032Z,4.23
2018-07-12T10:48:48.253Z,3.83
2018-07-12T10:51:16.478Z,4.63
2018-07-12T10:53:44.712Z,4.40
2018-07-12T10:56:12.936Z,4.23
2018-07-12T10:58:41.153Z,4.30
2018-07-12T11:01:09.344Z,4.10
2018-07-12T11:03:37.319Z,4.13
2018-07-12T11:06:05.761Z,4.30
2018-07-12T11:08:34.008Z,4.50
2018-07-12T11:11:02.224Z,5.07
2018-07-12T11:13:41.891Z,4.20
2018-07-12T11:16:10.191Z,4.67
2018-07-12T11:18:38.392Z,4.87
2018-07-12T11:21:06.638Z,4.50
2018-07-12T11:23:35.022Z,4.80
2018-07-12T11:26:03.311Z,3.90
2018-07-12T11:28:31.532Z,4.50
2018-07-12T11:30:59.770Z,4.03
2018-07-12T11:33:47.544Z,4.00
2018-07-12T11:36:15.789Z,3.93
2018-07-12T11:38:44.620Z,4.23
2018-07-12T11:41:13.451Z,3.90
2018-07-12T11:43:41.740Z,4.13
2018-07-12T11:46:11.199Z,4.87
2018-07-12T11:48:40.512Z,4.10
2018-07-12T11:51:08.740Z,4.10
2018-07-12T11:53:37.031Z,3.87
2018-07-12T11:56:05.303Z,3.77
2018-07-12T11:58:33.579Z,3.20
2018-07-12T12:01:01.998Z,3.33
2018-07-12T12:03:30.666Z,3.60
2018-07-12T12:05:58.971Z,3.53
2018-07-12T12:08:27.483Z,4.13
2018-07-12T12:10:55.749Z,4.00
2018-07-12T12:13:23.972Z,3.90
2018-07-12T12:15:52.199Z,3.53
2018-07-12T12:18:20.476Z,3.73
2018-07-12T12:20:48.723Z,2.97
2018-07-12T12:23:16.992Z,3.50
2018-07-12T12:25:45.284Z,3.13
2018-07-12T12:28:13.650Z,3.20
2018-07-12T12:30:41.936Z,2.50
2018-07-12T12:33:10.139Z,3.07
2018-07-12T12:35:38.360Z,3.20
2018-07-12T12:38:06.631Z,2.90
2018-07-12T12:40:34.894Z,2.87
2018-07-12T12:43:03.141Z,2.90
2018-07-12T12:45:31.364Z,2.60
2018-07-12T12:47:59.568Z,2.23
2018-07-12T12:50:27.819Z,2.40
2018-07-12T12:52:56.076Z,2.47
2018-07-12T12:55:24.293Z,2.50
2018-07-12T12:57:52.547Z,2.67
2018-07-12T13:00:20.747Z,2.80
2018-07-12T13:02:49.036Z,2.53
2018-07-12T13:05:17.259Z,2.40
2018-07-12T13:07:45.996Z,2.10
2018-07-12T13:10:14.200Z,2.07
2018-07-12T13:12:42.429Z,3.20
2018-07-12T13:15:10.668Z,2.87
2018-07-12T13:17:38.884Z,2.27
2018-07-12T13:20:07.136Z,1.70
2018-07-12T13:22:35.356Z,2.00
2018-07-12T13:25:03.596Z,1.80
2018-07-12T13:27:31.824Z,1.70
2018-07-12T13:30:00.079Z,1.70
2018-07-12T13:32:28.270Z,1.90
2018-07-12T13:34:56.510Z,2.00
2018-07-12T13:37:24.828Z,1.93
2018-07-12T13:39:53.075Z,2.00
2018-07-12T13:42:21.397Z,2.07
2018-07-12T13:44:49.584Z,1.93
2018-07-12T13:47:17.840Z,2.17
2018-07-12T13:49:46.100Z,1.80
2018-07-12T13:52:14.440Z,1.67
2018-07-12T13:54:42.611Z,1.90
2018-07-12T13:57:10.820Z,1.90
2018-07-12T13:59:39.037Z,2.10
2018-07-12T14:02:07.267Z,2.10
2018-07-12T14:04:35.556Z,1.80
2018-07-12T14:07:03.856Z,1.73
2018-07-12T14:09:32.061Z,1.83
2018-07-12T14:12:00.365Z,2.30
2018-07-12T14:14:28.639Z,1.97
2018-07-12T14:16:56.856Z,1.90
2018-07-12T14:19:25.131Z,1.93
2018-07-12T14:21:53.384Z,1.60
2018-07-12T14:24:21.668Z,1.73
2018-07-12T14:26:49.972Z,1.70
2018-07-12T14:29:18.224Z,1.60
2018-07-12T14:31:46.445Z,1.50
2018-07-12T14:34:14.709Z,1.53
2018-07-12T14:36:42.978Z,1.60
2018-07-12T14:39:11.212Z,1.60
2018-07-12T14:41:40.468Z,1.47
2018-07-12T14:44:09.187Z,1.50
2018-07-12T14:46:37.421Z,1.50
2018-07-12T14:49:05.708Z,1.47
2018-07-12T14:51:34.040Z,1.30
2018-07-12T14:54:02.428Z,1.70
2018-07-12T14:56:30.646Z,1.40
2018-07-12T14:58:58.893Z,2.03
2018-07-12T15:01:27.209Z,1.83
2018-07-12T15:03:55.436Z,1.70
2018-07-12T15:06:24.045Z,1.33
2018-07-12T15:08:52.434Z,1.40
2018-07-12T15:11:20.859Z,1.30
2018-07-12T15:13:49.172Z,1.40
2018-07-12T15:16:17.820Z,1.20
2018-07-12T15:18:46.094Z,1.10
2018-07-12T15:21:14.367Z,1.20
2018-07-12T15:23:42.671Z,1.10
2018-07-12T15:26:10.914Z,1.40
2018-07-12T15:28:39.099Z,1.27
2018-07-12T15:31:07.304Z,1.00
2018-07-12T15:33:35.521Z,1.02
2018-07-12T15:36:03.806Z,1.10
2018-07-12T15:38:32.012Z,1.47
2018-07-12T15:41:00.249Z,1.40
2018-07-12T15:43:28.512Z,1.20
2018-07-12T15:45:56.735Z,1.37
2018-07-12T15:48:24.995Z,1.40
2018-07-12T15:50:53.261Z,1.33
2018-07-12T15:53:21.493Z,1.50
2018-07-12T15:55:49.699Z,1.27
2018-07-12T15:58:17.945Z,1.17
2018-07-12T16:00:46.256Z,1.17
2018-07-12T16:03:14.464Z,1.53
2018-07-12T16:05:42.677Z,1.20
2018-07-12T16:08:10.925Z,1.30
2018-07-12T16:10:39.152Z,1.10
2018-07-12T16:13:07.436Z,1.40
2018-07-12T16:15:35.759Z,1.30
2018-07-12T16:18:04.060Z,1.40
2018-07-12T16:20:32.088Z,1.10
2018-07-12T16:23:00.346Z,1.10
2018-07-12T16:25:28.659Z,1.40
2018-07-12T16:27:57.009Z,1.20
2018-07-12T16:30:25.241Z,1.07
2018-07-12T16:32:53.492Z,1.20
2018-07-12T16:35:21.724Z,0.93
2018-07-12T16:37:50.032Z,1.07
2018-07-12T16:40:18.267Z,1.02
2018-07-12T16:42:46.560Z,1.35
2018-07-12T16:45:14.820Z,1.10
2018-07-12T16:47:43.116Z,1.35
2018-07-12T16:50:11.364Z,1.17
2018-07-12T16:52:39.817Z,1.30
2018-07-12T16:55:08.039Z,1.50
2018-07-12T16:57:36.264Z,1.10
2018-07-12T17:00:04.656Z,1.30
2018-07-12T17:02:32.893Z,1.43
2018-07-12T17:05:01.152Z,1.20
2018-07-12T17:07:29.937Z,1.60
2018-07-12T17:10:04.626Z,1.43
2018-07-12T17:12:32.857Z,1.33
2018-07-12T17:15:01.123Z,0.87
2018-07-12T17:17:29.405Z,1.20
2018-07-12T17:19:57.655Z,1.10
2018-07-12T17:22:25.851Z,1.22
2018-07-12T17:24:54.093Z,1.33
2018-07-12T17:27:22.320Z,1.70
2018-07-12T17:29:50.559Z,1.35
2018-07-12T17:32:18.888Z,1.30
2018-07-12T17:34:47.084Z,1.35
2018-07-12T17:37:15.319Z,1.50
2018-07-12T17:39:43.707Z,1.17
2018-07-12T17:42:12.024Z,1.80
2018-07-12T17:44:40.338Z,1.37
2018-07-12T17:47:08.614Z,1.10
2018-07-12T17:49:37.679Z,1.45
2018-07-12T17:52:06.094Z,1.57
2018-07-12T17:54:34.344Z,1.47
2018-07-12T17:57:02.579Z,1.30
2018-07-12T17:59:30.833Z,1.22
2018-07-12T18:01:59.092Z,1.10
2018-07-12T18:04:27.297Z,1.52
2018-07-12T18:06:55.548Z,1.30
2018-07-12T18:09:23.774Z,1.50
2018-07-12T18:11:52.192Z,1.55
2018-07-12T18:14:20.717Z,1.42
2018-07-12T18:16:48.892Z,1.15
2018-07-12T18:19:17.060Z,1.17
2018-07-12T18:21:45.322Z,1.25
2018-07-12T18:24:13.543Z,1.27
2018-07-12T18:26:41.795Z,1.22
2018-07-12T18:29:10.093Z,1.30
2018-07-12T18:31:38.380Z,1.30
2018-07-12T18:34:06.606Z,1.25
2018-07-12T18:36:34.834Z,1.07
2018-07-12T18:39:03.088Z,1.22
2018-07-12T18:41:31.392Z,1.40
2018-07-12T18:44:02.731Z,1.45
2018-07-12T18:46:31.055Z,1.65
2018-07-12T18:48:59.265Z,2.10
2018-07-12T18:51:27.523Z,1.70
2018-07-12T18:53:55.752Z,2.00
2018-07-12T18:56:23.979Z,1.70
2018-07-12T18:58:52.193Z,1.80
2018-07-12T19:01:20.483Z,1.87
2018-07-12T19:03:48.767Z,2.03
2018-07-12T19:06:17.000Z,1.40
2018-07-12T19:08:45.623Z,1.70
2018-07-12T19:11:13.846Z,2.07
2018-07-12T19:13:42.064Z,2.17
2018-07-12T19:16:10.589Z,1.93
2018-07-12T19:18:38.827Z,2.00
2018-07-12T19:21:07.037Z,2.07
2018-07-12T19:23:35.297Z,2.27
2018-07-12T19:26:03.720Z,2.40
2018-07-12T19:28:32.039Z,2.10
2018-07-12T19:31:00.279Z,2.10
2018-07-12T19:33:28.574Z,2.10
2018-07-12T19:35:56.945Z,2.17
2018-07-12T19:38:25.344Z,2.60
2018-07-12T19:40:53.577Z,2.17
2018-07-12T19:43:21.840Z,2.03
2018-07-12T19:45:50.103Z,2.30
2018-07-12T19:48:18.352Z,2.50
2018-07-12T19:50:47.258Z,2.50
2018-07-12T19:53:15.471Z,2.80
2018-07-12T19:55:43.891Z,2.87
2018-07-12T19:58:12.169Z,2.50
2018-07-12T20:00:40.486Z,2.20
2018-07-12T20:03:08.884Z,2.20
2018-07-12T20:05:37.076Z,2.30
2018-07-12T20:08:05.406Z,2.70
2018-07-12T20:10:33.615Z,2.40
2018-07-12T20:13:01.910Z,2.70
2018-07-12T20:15:30.137Z,3.23
2018-07-12T20:17:58.435Z,2.87
2018-07-12T20:20:26.666Z,2.90
2018-07-12T20:22:54.872Z,2.83
2018-07-12T20:25:23.971Z,6.07
2018-07-12T20:27:52.213Z,4.17
2018-07-12T20:30:20.565Z,3.10
2018-07-12T20:32:48.785Z,3.00
2018-07-12T20:35:17.031Z,3.63
2018-07-12T20:37:45.284Z,3.40
2018-07-12T20:40:13.558Z,3.47
2018-07-12T20:42:41.778Z,3.90
2018-07-12T20:45:09.989Z,3.80
2018-07-12T20:47:38.214Z,3.50
2018-07-12T20:50:06.538Z,3.50
2018-07-12T20:52:34.819Z,3.77
2018-07-12T20:55:03.419Z,3.63
2018-07-12T20:57:31.632Z,3.20
2018-07-12T20:59:59.827Z,3.70
2018-07-12T21:02:28.123Z,3.73
2018-07-12T21:04:56.440Z,4.03
2018-07-12T21:07:24.700Z,3.77
2018-07-12T21:09:52.884Z,3.90
2018-07-12T21:12:21.159Z,3.47
2018-07-12T21:14:49.431Z,4.17
2018-07-12T21:17:17.756Z,4.17
2018-07-12T21:19:45.995Z,3.77
2018-07-12T21:22:14.196Z,4.23
2018-07-12T21:24:42.440Z,4.10
2018-07-12T21:27:10.663Z,4.00
2018-07-12T21:29:39.021Z,4.27
2018-07-12T21:32:07.228Z,4.33
2018-07-12T21:34:35.439Z,3.83
2018-07-12T21:37:03.645Z,4.27
2018-07-12T21:39:32.021Z,3.73
2018-07-12T21:42:00.993Z,4.37
2018-07-12T21:44:29.893Z,4.63
2018-07-12T21:46:58.057Z,4.70
2018-07-12T21:49:26.259Z,4.63
2018-07-12T21:51:54.498Z,4.60
2018-07-12T21:54:22.735Z,4.73
2018-07-12T21:56:50.953Z,4.90
2018-07-12T21:59:19.265Z,4.37
2018-07-12T22:01:47.835Z,4.63
2018-07-12T22:04:16.090Z,4.43
2018-07-12T22:07:12.725Z,5.23
2018-07-12T22:09:41.284Z,4.63
2018-07-12T22:12:09.529Z,4.50
2018-07-12T22:14:44.552Z,4.93
2018-07-12T22:17:12.766Z,4.40
2018-07-12T22:19:41.021Z,4.70
2018-07-12T22:22:09.265Z,4.83
2018-07-12T22:24:37.536Z,4.53
2018-07-12T22:27:05.719Z,5.47
2018-07-12T22:29:33.934Z,4.47
2018-07-12T22:32:02.193Z,4.57
2018-07-12T22:34:30.433Z,5.07
2018-07-12T22:36:58.672Z,5.10
2018-07-12T22:39:26.883Z,5.17
2018-07-12T22:41:55.081Z,5.23
2018-07-12T22:44:23.318Z,5.50
2018-07-12T22:46:51.554Z,4.60
2018-07-12T22:49:19.789Z,5.23
2018-07-12T22:51:48.093Z,4.80
2018-07-12T22:54:16.299Z,5.23
2018-07-12T22:56:44.560Z,4.97
2018-07-12T22:59:12.805Z,5.43
2018-07-12T23:01:41.044Z,5.30
2018-07-12T23:04:09.250Z,4.97
2018-07-12T23:06:37.492Z,5.27
2018-07-12T23:09:06.069Z,4.90
2018-07-12T23:11:34.304Z,4.97
2018-07-12T23:14:02.607Z,5.00
2018-07-12T23:16:30.873Z,5.27
2018-07-12T23:18:59.935Z,5.00
2018-07-12T23:21:28.155Z,5.87
2018-07-12T23:23:56.356Z,5.27
2018-07-12T23:26:24.549Z,5.20
2018-07-12T23:28:52.758Z,5.80
2018-07-12T23:31:20.957Z,6.10
2018-07-12T23:33:49.179Z,6.77
2018-07-12T23:36:17.388Z,6.93
2018-07-12T23:38:45.663Z,6.97
2018-07-12T23:41:13.901Z,6.23
2018-07-12T23:43:42.104Z,6.50
2018-07-12T23:46:10.349Z,6.30
2018-07-12T23:48:38.576Z,5.60
2018-07-12T23:51:06.849Z,5.93
2018-07-12T23:53:35.065Z,5.90
2018-07-12T23:56:03.279Z,6.20
2018-07-12T23:58:31.641Z,6.43
